九州TAF電文


北九州(RJFR)
7/13 20h
TAF RJFR 131106Z 1312/1418 10005KT 8000 -SHRA FEW008 SCT010 BKN015
TEMPO 1318/1321 3000 SHRA BR FEW003 SCT005 BKN008 TEMPO
1321/1406 3000 TSRA BR FEW003 SCT005 BKN008 FEW025CB BECMG
1322/1400 12015KT BECMG 1403/1406 23012KT=

福岡(RJFF)
7/13 20h
TAF RJFF 131106Z 1312/1418 15005KT 9000 -SHRA FEW008 SCT015 BKN025
TEMPO 1317/1321 3000 SHRA BR BECMG 1321/1323 15015KT TEMPO
1321/1403 3000 TSRA BR FEW005 SCT008 BKN015 FEW025CB=

佐賀(RJFS)
7/13 20h
TAF RJFS 131109Z 1312/1418 17012KT 9000 -SHRA FEW008 SCT015 BKN020
TEMPO 1315/1318 3000 SHRA BR FEW005 BKN008 BKN015 TEMPO
1318/1403 1500 +TSRA BR FEW003 BKN005 BKN008 FEW020CB BECMG
1400/1403 21018KT TEMPO 1403/1406 3000 SHRA BR BECMG
1409/1412 18008KT=

大分(RJFO)
7/13 21h
TAF AMD RJFO 131210Z 1312/1418 06003KT 9000 -SHRA FEW005 SCT010
BKN015 TEMPO 1312/1318 FEW003 BKN005 BKN008 TEMPO 1318/1400
4000 -SHRA BR FEW003 BKN005 BKN008 BECMG 1400/1403 20005KT
TEMPO 1400/1409 3000 SHRA BR FEW003 BKN005 BKN008=

長崎(RJFU)
7/13 20h
TAF RJFU 131109Z 1312/1418 15009KT 7000 -SHRA FEW008 SCT010 BKN015
TEMPO 1314/1318 3000 SHRA BR FEW005 BKN008 BKN010 TEMPO
1318/1403 1500 +TSRA BR FEW003 BKN005 BKN008 FEW020CB BECMG
1320/1322 20025KT TEMPO 1403/1406 3000 SHRA BR FEW005
BKN008 BKN010 BECMG 1406/1409 15006KT=

熊本(RJFT)
7/13 20h
TAF RJFT 131109Z 1312/1418 06003KT 8000 -SHRA FEW005 SCT010 BKN015
TEMPO 1312/1315 4000 -SHRA BR FEW003 BKN005 BKN008 BECMG
1321/1323 21010KT TEMPO 1321/1406 1500 TSRA BR FEW001
BKN003 BKN008 FEW020CB TEMPO 1406/1409 3000 SHRA BR FEW002
BKN005 BKN008 TEMPO 1409/1412 4000 -SHRA BR=

宮崎(RJFM)
7/13 20h
TAF RJFM 131107Z 1312/1418 28006KT 9999 FEW010 BKN040 TEMPO
1318/1400 4000 -SHRA BR TEMPO 1400/1406 3000 TSRA BR FEW005
SCT015 FEW025CB BKN030=

鹿児島(RJFK)
7/13 21h
TAF AMD RJFK 131224Z 1312/1418 04004KT 8000 -SHRA FEW005 SCT010
BKN020
TEMPO 1312/1318 4000 -SHRA BR FEW003 BKN005 BKN008
TEMPO 1318/1403 1500 TSRA BR FEW003 BKN005 BKN008 FEW025CB
TEMPO 1403/1406 3000 SHRA BR FEW003 BKN005 BKN008
TEMPO 1415/1418 4000 -SHRA BR=

那覇(ROAH)
7/13 20h
TAF ROAH 131105Z 1312/1418 15010KT 9999 FEW015 SCT020=

石垣(ROIG)
7/13 20h
TAF ROIG 131105Z 1312/1418 15008KT 9999 FEW015 SCT020 BECMG
1409/1412 12008KT=
Copyright(c) 2014 International Meteorological & Oceanographic Consultants Co,.Ltd. All Rights Reserved. Design by http://f-tpl.com